Time;durP1;ratioP1;P1;durP2;ratioP2;P2;SDS_P1;SDS_P2;PMS_P1;PMS_P2;Temp;Humidity;BMP_temperature;BMP_pressure;BME280_temperature;BME280_humidity;BME280_pressure;Samples;Min_cycle;Max_cycle;Signal;HPM_P1;HPM_P2
2022/05/22 00:01:57;;;;;;;5.80;1.20;;;12.30;75.10;;;;;;4898711;29;20057;-72
2022/05/22 00:04:26;;;;;;;8.07;1.45;;;12.30;74.60;;;;;;4897356;29;20420;-72
2022/05/22 00:06:54;;;;;;;7.35;1.38;;;12.40;74.30;;;;;;4881905;29;20060;-73
2022/05/22 00:09:23;;;;;;;4.15;1.17;;;12.40;73.90;;;;;;4881623;29;20072;-73
2022/05/22 00:11:51;;;;;;;5.32;1.25;;;12.50;73.50;;;;;;4897088;29;20052;-73
2022/05/22 00:14:18;;;;;;;2.65;1.10;;;12.50;73.30;;;;;;4898414;29;20384;-72
2022/05/22 00:16:46;;;;;;;3.50;1.05;;;12.50;72.80;;;;;;4897343;29;20052;-73
2022/05/22 00:19:24;;;;;;;4.47;1.02;;;12.60;72.40;;;;;;4898316;29;20056;-73
2022/05/22 00:21:52;;;;;;;3.75;1.00;;;12.60;71.80;;;;;;4881832;29;20048;-73
2022/05/22 00:24:25;;;;;;;3.25;1.20;;;12.60;71.50;;;;;;4897814;29;20435;-72
2022/05/22 00:26:53;;;;;;;4.50;1.10;;;12.60;71.50;;;;;;4896688;29;20415;-72
2022/05/22 00:29:23;;;;;;;4.57;1.40;;;12.60;71.20;;;;;;4898221;29;20064;-72
2022/05/22 00:31:50;;;;;;;4.57;1.00;;;12.60;71.30;;;;;;4896718;29;20071;-72
2022/05/22 00:34:19;;;;;;;8.25;1.40;;;12.60;71.00;;;;;;4881274;29;20407;-73
2022/05/22 00:36:46;;;;;;;3.13;0.90;;;12.60;70.90;;;;;;4896811;29;20510;-73
2022/05/22 00:39:14;;;;;;;4.47;1.17;;;12.60;70.80;;;;;;4895414;29;20411;-73
2022/05/22 00:41:51;;;;;;;4.20;1.10;;;12.50;70.80;;;;;;4896421;29;20060;-73
2022/05/22 00:44:19;;;;;;;7.55;1.02;;;12.50;70.70;;;;;;4896654;29;20056;-72
2022/05/22 00:46:48;;;;;;;6.80;1.83;;;12.40;70.70;;;;;;4881270;29;20395;-73
2022/05/22 00:49:29;;;;;;;4.60;1.00;;;12.40;70.80;;;;;;4880935;29;20057;-72
2022/05/22 00:52:10;;;;;;;4.85;1.20;;;12.40;70.80;;;;;;4897044;29;20044;-72
2022/05/22 00:55:01;;;;;;;9.00;1.40;;;12.40;71.00;;;;;;4881011;29;20056;-73
2022/05/22 00:57:42;;;;;;;3.47;1.15;;;12.30;71.00;;;;;;4881261;29;20056;-73
2022/05/22 01:00:14;;;;;;;2.97;1.25;;;12.30;71.10;;;;;;4896517;29;20052;-73
2022/05/22 01:05:38;;;;;;;5.78;1.02;;;12.20;71.30;;;;;;4878247;29;20056;-73
2022/05/22 01:08:06;;;;;;;5.05;1.20;;;12.20;71.50;;;;;;4878914;29;20052;-72
2022/05/22 01:10:44;;;;;;;6.50;1.27;;;12.20;71.70;;;;;;4877398;29;20052;-72
2022/05/22 01:13:14;;;;;;;7.22;1.35;;;12.10;71.80;;;;;;4878932;29;20052;-73
2022/05/22 01:15:43;;;;;;;5.32;1.33;;;12.00;71.80;;;;;;4862437;29;20060;-72
2022/05/22 01:18:13;;;;;;;6.70;1.23;;;12.00;71.80;;;;;;4877254;29;20064;-73
2022/05/22 01:20:48;;;;;;;1.52;0.80;;;12.00;71.80;;;;;;4878608;29;20052;-73
2022/05/22 01:23:17;;;;;;;5.45;0.90;;;12.00;71.80;;;;;;4877455;29;20068;-72
2022/05/22 01:25:49;;;;;;;1.20;0.80;;;12.00;71.60;;;;;;4877420;29;20083;-73
2022/05/22 01:28:20;;;;;;;5.22;1.00;;;12.10;71.50;;;;;;4862034;29;20538;-72
2022/05/22 01:30:49;;;;;;;6.68;1.08;;;12.10;71.50;;;;;;4861916;29;20045;-73
2022/05/22 01:33:17;;;;;;;3.97;0.90;;;12.10;71.50;;;;;;4862317;29;20045;-73
2022/05/22 01:35:45;;;;;;;8.00;1.50;;;12.00;71.40;;;;;;4861995;29;20052;-73
2022/05/22 01:38:13;;;;;;;6.28;1.42;;;12.10;71.50;;;;;;4883102;29;20064;-72
2022/05/22 01:40:44;;;;;;;4.85;1.10;;;12.10;71.40;;;;;;4867880;29;20064;-72
2022/05/22 01:43:12;;;;;;;4.30;0.90;;;12.10;71.40;;;;;;4883764;29;20045;-73
2022/05/22 01:45:43;;;;;;;6.53;0.95;;;12.10;71.40;;;;;;4867791;29;20388;-73
2022/05/22 01:48:13;;;;;;;3.10;0.82;;;12.10;71.40;;;;;;4883530;29;20045;-73
2022/05/22 01:50:45;;;;;;;5.20;0.98;;;12.00;71.50;;;;;;4883500;29;20057;-73
2022/05/22 01:53:14;;;;;;;5.45;1.00;;;12.00;71.50;;;;;;4883496;29;20060;-72
2022/05/22 01:55:42;;;;;;;4.22;1.10;;;12.00;71.60;;;;;;4883452;29;20059;-73
2022/05/22 01:58:10;;;;;;;1.55;0.70;;;12.00;71.50;;;;;;4884177;29;20416;-73
2022/05/22 02:00:41;;;;;;;4.18;1.02;;;12.00;71.40;;;;;;4883693;29;20041;-72
2022/05/22 02:03:10;;;;;;;3.03;0.80;;;12.00;71.30;;;;;;4883406;29;20052;-73
2022/05/22 02:05:37;;;;;;;4.65;0.82;;;12.00;71.30;;;;;;4883639;29;20052;-72
2022/05/22 02:08:24;;;;;;;4.97;0.95;;;12.00;71.00;;;;;;4883741;29;20059;-72
2022/05/22 02:10:58;;;;;;;7.70;1.10;;;12.00;70.80;;;;;;4884584;29;20052;-72
2022/05/22 02:13:32;;;;;;;3.90;0.80;;;12.10;70.70;;;;;;4883109;29;20526;-73
2022/05/22 02:15:59;;;;;;;2.28;1.00;;;12.10;70.50;;;;;;4884686;29;20166;-73
2022/05/22 02:18:31;;;;;;;5.57;0.70;;;12.10;70.50;;;;;;4882982;29;20504;-73
2022/05/22 02:21:00;;;;;;;2.78;0.80;;;12.00;70.50;;;;;;4899442;29;20047;-73
2022/05/22 02:23:32;;;;;;;2.65;0.85;;;12.00;70.50;;;;;;4902810;29;20513;-73
2022/05/22 02:25:59;;;;;;;3.17;0.98;;;12.00;70.60;;;;;;4901650;29;20071;-74
2022/05/22 02:28:30;;;;;;;3.72;0.93;;;12.00;70.60;;;;;;4886513;29;20057;-73
2022/05/22 02:31:00;;;;;;;3.03;1.33;;;12.00;70.60;;;;;;4903121;29;20052;-73
2022/05/22 02:33:30;;;;;;;3.63;1.00;;;12.00;70.70;;;;;;4903128;29;20226;-74
2022/05/22 02:36:10;;;;;;;5.60;1.05;;;11.90;70.80;;;;;;4886207;29;20072;-73
2022/05/22 02:38:38;;;;;;;4.97;0.93;;;11.90;70.90;;;;;;4901646;29;20052;-73
2022/05/22 02:41:17;;;;;;;4.25;1.08;;;11.80;70.90;;;;;;4901829;29;20052;-72
2022/05/22 02:43:52;;;;;;;5.82;1.30;;;11.80;71.00;;;;;;4901750;29;20525;-73
2022/05/22 02:46:22;;;;;;;4.32;1.10;;;11.80;71.00;;;;;;4885242;29;20411;-73
2022/05/22 02:48:52;;;;;;;2.20;0.85;;;11.80;71.10;;;;;;4883442;29;20041;-73
2022/05/22 02:51:27;;;;;;;3.50;1.10;;;11.80;71.30;;;;;;4898566;29;20435;-73
2022/05/22 02:53:56;;;;;;;4.38;1.15;;;11.80;71.30;;;;;;4883255;29;20041;-72
2022/05/22 02:56:28;;;;;;;4.25;1.33;;;11.80;71.40;;;;;;4898847;29;20305;-73
2022/05/22 02:59:15;;;;;;;4.22;1.20;;;11.80;71.40;;;;;;4899987;29;20490;-73
2022/05/22 03:02:01;;;;;;;3.28;1.00;;;11.80;71.50;;;;;;4898715;29;20057;-72
2022/05/22 03:04:31;;;;;;;4.72;1.05;;;11.80;71.50;;;;;;4898619;29;20056;-73
2022/05/22 03:07:04;;;;;;;6.30;1.17;;;11.80;71.60;;;;;;4898513;29;20063;-73
2022/05/22 03:09:32;;;;;;;3.78;1.17;;;11.80;71.90;;;;;;4882675;29;20545;-73
2022/05/22 03:12:08;;;;;;;3.58;1.10;;;11.80;71.90;;;;;;4898530;29;20639;-73
2022/05/22 03:14:49;;;;;;;1.88;1.00;;;11.80;71.90;;;;;;4898221;29;20064;-73
2022/05/22 03:17:17;;;;;;;5.15;1.10;;;11.80;72.00;;;;;;4882772;29;20055;-73
2022/05/22 03:19:51;;;;;;;3.20;1.00;;;11.70;72.10;;;;;;4899601;29;20056;-73
2022/05/22 03:22:20;;;;;;;7.25;1.30;;;11.70;72.50;;;;;;4882556;29;20048;-72
2022/05/22 03:24:48;;;;;;;3.97;1.08;;;11.70;72.40;;;;;;4899253;29;20055;-73
2022/05/22 03:27:20;;;;;;;6.32;1.10;;;11.70;72.50;;;;;;4897893;29;20063;-72
2022/05/22 03:29:51;;;;;;;10.17;1.10;;;11.60;72.50;;;;;;4897984;29;20055;-72
2022/05/22 03:32:19;;;;;;;3.15;0.88;;;11.50;72.60;;;;;;4899293;29;20064;-73
2022/05/22 03:34:53;;;;;;;3.80;1.02;;;11.50;72.70;;;;;;4882267;29;20055;-72
2022/05/22 03:37:24;;;;;;;3.15;1.20;;;11.40;72.80;;;;;;4897341;29;20060;-72
2022/05/22 03:39:53;;;;;;;6.82;1.13;;;11.40;72.90;;;;;;4897927;29;20052;-73
2022/05/22 03:42:21;;;;;;;2.83;1.05;;;11.50;73.00;;;;;;4882098;29;20555;-73
2022/05/22 03:44:49;;;;;;;6.45;0.90;;;11.40;73.00;;;;;;4898884;29;20523;-72
2022/05/22 03:47:19;;;;;;;9.40;1.08;;;11.50;73.10;;;;;;4882270;29;20044;-72
2022/05/22 03:50:04;;;;;;;3.75;0.93;;;11.50;73.10;;;;;;4897488;29;20052;-72
2022/05/22 03:52:34;;;;;;;5.20;1.10;;;11.50;73.10;;;;;;4881945;29;20074;-73
2022/05/22 03:55:05;;;;;;;4.00;1.00;;;11.50;73.10;;;;;;4866227;29;20053;-73
2022/05/22 03:57:33;;;;;;;9.82;1.40;;;11.60;73.10;;;;;;4898962;29;20051;-72
2022/05/22 04:00:07;;;;;;;4.25;1.20;;;11.50;73.10;;;;;;4897263;29;20060;-73
2022/05/22 04:02:43;;;;;;;4.10;0.88;;;11.60;73.00;;;;;;4882012;29;20499;-72
2022/05/22 04:05:15;;;;;;;6.32;1.00;;;11.60;72.80;;;;;;4881858;29;20075;-72
2022/05/22 04:07:48;;;;;;;2.92;0.90;;;11.60;72.80;;;;;;4898475;29;20056;-71
2022/05/22 04:10:22;;;;;;;5.47;0.88;;;11.70;72.70;;;;;;4897225;29;20052;-71
2022/05/22 04:12:50;;;;;;;3.85;0.88;;;11.80;72.60;;;;;;4897770;29;20052;-73
2022/05/22 04:15:21;;;;;;;6.72;0.90;;;11.80;72.50;;;;;;4897432;29;20044;-73
2022/05/22 04:17:51;;;;;;;2.90;0.85;;;11.80;72.30;;;;;;4881461;29;20064;-73
2022/05/22 04:20:23;;;;;;;5.38;0.88;;;11.80;72.20;;;;;;4897062;29;20064;-71
2022/05/22 04:25:56;;;;;;;2.78;0.80;;;11.80;72.00;;;;;;4881419;29;20110;-73
2022/05/22 04:28:25;;;;;;;4.13;0.88;;;11.90;71.90;;;;;;4897055;29;20060;-74
2022/05/22 04:31:03;;;;;;;2.45;1.00;;;11.80;71.80;;;;;;4881353;29;20053;-74
2022/05/22 04:33:38;;;;;;;2.10;0.80;;;11.80;71.80;;;;;;4881221;29;20049;-73
2022/05/22 04:36:06;;;;;;;3.25;1.00;;;11.80;71.70;;;;;;4881445;29;20079;-73
2022/05/22 04:38:34;;;;;;;4.68;1.02;;;11.80;71.60;;;;;;4881173;29;20053;-73
2022/05/22 04:41:03;;;;;;;5.45;0.80;;;11.90;71.50;;;;;;4897640;29;20063;-73
2022/05/22 04:43:32;;;;;;;4.10;0.77;;;12.00;71.50;;;;;;4897408;29;20053;-73
2022/05/22 04:46:00;;;;;;;3.10;0.60;;;12.00;71.40;;;;;;4896490;29;20063;-73
2022/05/22 04:48:28;;;;;;;3.22;1.10;;;12.00;71.20;;;;;;4881101;29;20475;-71
2022/05/22 04:50:58;;;;;;;3.30;0.98;;;12.10;71.00;;;;;;4896425;29;20048;-72
2022/05/22 04:53:46;;;;;;;2.42;1.00;;;12.10;71.00;;;;;;4865602;29;20063;-71
2022/05/22 04:56:21;;;;;;;2.22;0.73;;;12.10;70.90;;;;;;4881018;29;20060;-71
2022/05/22 04:58:55;;;;;;;2.97;0.90;;;12.10;70.90;;;;;;4882064;29;20075;-74
2022/05/22 05:01:25;;;;;;;4.78;0.90;;;12.10;70.90;;;;;;4896430;29;20055;-72
2022/05/22 05:04:25;;;;;;;2.28;0.90;;;12.10;70.90;;;;;;4894543;29;20052;-73
2022/05/22 05:07:14;;;;;;;5.32;1.20;;;12.10;70.90;;;;;;4895366;29;20060;-72
2022/05/22 05:09:48;;;;;;;2.50;0.90;;;12.20;70.90;;;;;;4895252;29;20056;-72
2022/05/22 05:12:39;;;;;;;4.47;1.00;;;12.20;70.90;;;;;;4894949;29;20059;-72
2022/05/22 05:15:19;;;;;;;7.70;1.00;;;12.20;71.00;;;;;;4879550;29;20057;-72
2022/05/22 05:17:56;;;;;;;4.85;0.90;;;12.20;71.10;;;;;;4895090;29;20048;-72
2022/05/22 05:20:26;;;;;;;3.22;0.95;;;12.20;71.20;;;;;;4895031;29;20051;-72
2022/05/22 05:23:03;;;;;;;5.50;1.20;;;12.20;71.30;;;;;;4879627;29;20044;-72
2022/05/22 05:25:40;;;;;;;5.00;1.23;;;12.20;71.40;;;;;;4895015;29;20060;-72
2022/05/22 05:28:08;;;;;;;6.22;1.10;;;12.30;71.60;;;;;;4876984;29;20075;-72
2022/05/22 05:30:37;;;;;;;6.22;1.58;;;12.20;71.80;;;;;;4894748;29;20064;-72
2022/05/22 05:33:06;;;;;;;3.97;1.05;;;12.20;71.90;;;;;;4894030;29;20502;-72
2022/05/22 05:36:03;;;;;;;4.47;1.40;;;12.20;72.20;;;;;;4894599;29;20264;-72
2022/05/22 05:38:53;;;;;;;3.80;1.30;;;12.20;72.50;;;;;;4890536;29;20057;-72
2022/05/22 05:41:48;;;;;;;5.50;1.10;;;12.20;72.80;;;;;;4893827;29;20491;-72
2022/05/22 05:44:19;;;;;;;6.90;1.50;;;12.30;73.00;;;;;;4880421;29;20419;-72
2022/05/22 05:46:58;;;;;;;7.55;1.42;;;12.30;73.20;;;;;;4880485;29;20048;-72
2022/05/22 05:49:35;;;;;;;3.63;1.40;;;12.30;73.50;;;;;;4880584;29;20407;-72
2022/05/22 05:52:35;;;;;;;4.50;1.50;;;12.30;73.60;;;;;;4857671;29;20062;-72
2022/05/22 05:55:24;;;;;;;5.38;1.30;;;12.40;73.70;;;;;;4842284;29;20065;-72
2022/05/22 05:58:24;;;;;;;5.50;1.23;;;12.40;73.80;;;;;;4857653;29;20072;-72
2022/05/22 06:01:28;;;;;;;3.88;1.27;;;12.50;74.00;;;;;;4846689;29;20137;-72
2022/05/22 06:03:56;;;;;;;8.90;1.33;;;12.50;74.50;;;;;;4857874;29;20091;-73
2022/05/22 06:06:24;;;;;;;7.20;1.27;;;12.60;74.40;;;;;;4842180;29;20080;-73
2022/05/22 06:08:57;;;;;;;6.80;1.43;;;12.60;74.60;;;;;;4842250;29;20076;-73
2022/05/22 06:11:37;;;;;;;4.05;1.23;;;12.70;74.70;;;;;;4841916;29;20057;-73
2022/05/22 06:14:16;;;;;;;6.18;1.15;;;12.80;74.60;;;;;;4841990;29;20096;-73
2022/05/22 06:16:44;;;;;;;6.68;1.50;;;12.80;74.70;;;;;;4857629;29;20061;-74
2022/05/22 06:19:14;;;;;;;4.10;1.40;;;12.90;74.70;;;;;;4857491;29;20057;-73
2022/05/22 06:21:47;;;;;;;9.60;1.35;;;12.90;74.80;;;;;;4841975;29;20419;-73
2022/05/22 06:24:14;;;;;;;7.35;1.42;;;12.90;74.90;;;;;;4843322;29;20053;-73
2022/05/22 06:27:20;;;;;;;2.45;1.33;;;13.00;75.00;;;;;;4864172;29;20434;-72
2022/05/22 06:29:58;;;;;;;6.75;1.20;;;13.10;75.00;;;;;;4883471;29;20068;-73
2022/05/22 06:32:32;;;;;;;5.68;1.23;;;13.20;75.10;;;;;;4900253;29;20048;-73
2022/05/22 06:35:17;;;;;;;6.00;1.65;;;13.30;74.90;;;;;;4867574;29;20064;-73
2022/05/22 06:41:26;;;;;;;5.35;1.23;;;13.40;74.70;;;;;;4860359;29;20415;-73
2022/05/22 06:44:32;;;;;;;5.65;1.45;;;13.50;74.50;;;;;;4865303;29;20061;-73
2022/05/22 06:47:36;;;;;;;4.13;1.20;;;13.60;74.50;;;;;;4860474;29;20060;-73
2022/05/22 06:50:26;;;;;;;2.88;1.23;;;13.60;74.60;;;;;;4845095;29;20057;-73
2022/05/22 06:53:26;;;;;;;4.05;1.50;;;13.80;74.50;;;;;;4860257;29;20418;-73
2022/05/22 06:56:12;;;;;;;5.93;1.60;;;13.80;74.40;;;;;;4846803;29;20061;-72
2022/05/22 06:58:58;;;;;;;5.40;1.27;;;13.80;74.40;;;;;;4860199;29;20547;-73
2022/05/22 07:01:46;;;;;;;4.13;1.30;;;13.90;74.30;;;;;;4860306;29;20053;-73
2022/05/22 07:04:51;;;;;;;7.07;1.40;;;13.90;74.40;;;;;;4850942;29;20546;-72
2022/05/22 07:07:45;;;;;;;7.35;1.40;;;13.90;74.50;;;;;;4860362;29;20304;-73
2022/05/22 07:13:47;;;;;;;6.13;1.20;;;14.10;74.40;;;;;;4859965;29;20050;-74
2022/05/22 07:16:38;;;;;;;6.38;1.40;;;14.10;74.30;;;;;;4860032;29;20077;-73
2022/05/22 07:19:16;;;;;;;3.60;1.58;;;14.20;74.20;;;;;;4859749;29;20042;-73
2022/05/22 07:21:49;;;;;;;3.08;1.15;;;14.20;74.00;;;;;;4859589;29;20061;-73
2022/05/22 07:24:36;;;;;;;6.10;1.33;;;14.20;74.10;;;;;;4859652;29;20065;-73
2022/05/22 07:27:33;;;;;;;5.55;1.40;;;14.30;74.10;;;;;;4867801;29;20065;-73
2022/05/22 07:30:17;;;;;;;4.35;1.27;;;14.30;73.90;;;;;;4884260;29;20053;-73
2022/05/22 07:33:17;;;;;;;2.83;1.15;;;14.40;73.70;;;;;;4859667;29;20065;-73
2022/05/22 07:35:57;;;;;;;4.43;1.33;;;14.50;73.60;;;;;;4859227;29;20061;-73
2022/05/22 07:38:31;;;;;;;2.28;1.13;;;14.50;73.60;;;;;;4859579;29;20175;-72
2022/05/22 07:41:22;;;;;;;3.10;1.15;;;14.60;73.40;;;;;;4863773;29;20531;-72
2022/05/22 07:44:07;;;;;;;6.15;1.40;;;14.70;73.40;;;;;;4844069;29;20064;-73
2022/05/22 07:46:58;;;;;;;3.22;1.10;;;14.80;73.20;;;;;;4859317;29;20060;-74
2022/05/22 07:52:50;;;;;;;6.88;1.42;;;14.90;72.10;;;;;;4859558;29;20061;-73
2022/05/22 07:55:36;;;;;;;3.65;1.00;;;15.10;72.10;;;;;;4858902;29;20049;-74
2022/05/22 07:58:07;;;;;;;8.10;1.40;;;15.30;71.80;;;;;;4859230;29;20049;-73
2022/05/22 08:00:43;;;;;;;2.10;1.00;;;15.40;71.40;;;;;;4839043;29;20054;-73
2022/05/22 08:03:16;;;;;;;1.98;1.00;;;15.60;70.70;;;;;;4850666;29;20072;-73
2022/05/22 08:05:56;;;;;;;4.63;1.33;;;15.60;70.50;;;;;;4850306;29;20046;-73
2022/05/22 08:08:24;;;;;;;3.17;1.00;;;15.60;70.60;;;;;;4854961;29;20061;-73
2022/05/22 08:11:18;;;;;;;4.03;1.10;;;15.70;70.60;;;;;;4865885;29;20057;-73
2022/05/22 08:13:54;;;;;;;3.05;1.25;;;15.60;70.30;;;;;;4862908;29;20053;-74
2022/05/22 08:16:31;;;;;;;1.70;0.82;;;15.60;70.40;;;;;;4862795;29;20391;-74
2022/05/22 08:19:08;;;;;;;4.78;1.65;;;15.50;70.50;;;;;;4861552;29;20510;-74
2022/05/22 08:21:48;;;;;;;2.00;0.80;;;15.40;70.80;;;;;;4860788;29;20188;-73
2022/05/22 08:24:17;;;;;;;3.83;1.00;;;15.40;71.10;;;;;;4870580;29;20041;-72
2022/05/22 08:26:45;;;;;;;5.95;2.03;;;15.40;71.20;;;;;;4885702;29;20037;-74
2022/05/22 08:29:16;;;;;;;4.13;1.60;;;15.40;71.40;;;;;;4862490;29;20045;-72
2022/05/22 08:31:45;;;;;;;6.72;2.63;;;15.50;71.20;;;;;;4853362;29;20040;-73
2022/05/22 08:34:15;;;;;;;4.35;1.10;;;15.50;71.50;;;;;;4854952;29;20061;-73
2022/05/22 08:36:48;;;;;;;3.60;1.00;;;15.50;71.70;;;;;;4869004;29;20050;-73
2022/05/22 08:39:16;;;;;;;3.67;1.13;;;15.50;71.70;;;;;;4868487;29;20053;-74
2022/05/22 08:41:48;;;;;;;2.95;1.00;;;15.60;71.10;;;;;;4862412;29;20288;-72
2022/05/22 08:44:22;;;;;;;2.10;1.00;;;15.60;70.80;;;;;;4879792;29;20045;-72
2022/05/22 08:47:03;;;;;;;2.83;0.90;;;15.70;71.30;;;;;;4903262;29;20059;-74
2022/05/22 08:50:00;;;;;;;3.25;1.02;;;15.80;71.10;;;;;;4896499;29;20075;-72
2022/05/22 08:52:51;;;;;;;2.83;1.17;;;15.90;70.30;;;;;;4896927;29;20052;-73
2022/05/22 08:58:55;;;;;;;3.78;1.25;;;16.00;70.10;;;;;;4897291;29;20051;-73
2022/05/22 09:01:12;;;;;;;5.25;1.30;;;16.20;70.00;;;;;;4895137;29;20056;-72
2022/05/22 09:03:51;;;;;;;3.35;1.10;;;16.30;69.40;;;;;;4897144;29;20048;-73
2022/05/22 09:06:27;;;;;;;2.22;0.88;;;16.40;69.10;;;;;;4881086;29;20498;-73
2022/05/22 09:09:00;;;;;;;10.40;1.08;;;16.60;68.80;;;;;;4896293;29;20048;-75
2022/05/22 09:11:43;;;;;;;4.28;0.93;;;16.80;68.60;;;;;;4880879;29;20055;-72
2022/05/22 09:14:36;;;;;;;1.60;0.87;;;17.10;68.50;;;;;;4880618;29;20060;-74
2022/05/22 09:17:21;;;;;;;2.97;0.70;;;17.30;67.20;;;;;;4895655;29;20057;-73
2022/05/22 09:20:21;;;;;;;2.45;0.90;;;17.50;66.10;;;;;;4896438;29;20060;-72
2022/05/22 09:23:25;;;;;;;3.05;1.00;;;17.50;65.30;;;;;;4880555;29;20060;-73
2022/05/22 09:26:07;;;;;;;2.15;1.00;;;17.50;65.30;;;;;;4896981;29;20064;-73
2022/05/22 09:28:47;;;;;;;2.10;1.17;;;17.60;65.60;;;;;;4897241;29;20049;-73
2022/05/22 09:31:29;;;;;;;1.73;0.77;;;17.80;65.10;;;;;;4880702;29;20082;-72
2022/05/22 09:34:25;;;;;;;0.95;0.65;;;17.80;65.00;;;;;;4897718;29;20052;-73
2022/05/22 09:37:05;;;;;;;2.47;0.80;;;17.80;65.00;;;;;;4880650;29;20075;-73
2022/05/22 09:39:52;;;;;;;2.72;0.77;;;17.90;64.70;;;;;;4895986;29;20413;-73
2022/05/22 09:42:31;;;;;;;1.52;0.50;;;18.00;65.00;;;;;;4897189;29;20060;-73
2022/05/22 09:45:27;;;;;;;0.85;0.50;;;18.00;64.00;;;;;;4880076;29;20052;-73
2022/05/22 09:48:16;;;;;;;0.82;0.63;;;17.90;64.20;;;;;;4896995;29;20060;-73
2022/05/22 09:50:55;;;;;;;3.50;1.00;;;17.80;64.20;;;;;;4895897;29;20056;-73
2022/05/22 09:53:43;;;;;;;2.92;1.10;;;17.80;65.00;;;;;;4880712;29;20060;-74
2022/05/22 09:56:46;;;;;;;2.00;0.85;;;17.80;65.40;;;;;;4896357;29;20061;-74
2022/05/22 09:59:23;;;;;;;1.92;0.77;;;17.90;65.40;;;;;;4900472;29;20052;-72
2022/05/22 10:01:56;;;;;;;2.20;0.80;;;18.00;65.10;;;;;;4883861;29;20052;-72
2022/05/22 10:04:56;;;;;;;3.67;0.73;;;18.10;64.70;;;;;;4899619;29;20521;-72
2022/05/22 10:07:29;;;;;;;0.80;0.40;;;18.30;64.60;;;;;;4892685;29;20064;-73
2022/05/22 10:10:56;;;;;;;0.90;0.30;;;18.50;63.60;;;;;;4900577;29;20049;-73
2022/05/22 10:13:45;;;;;;;0.28;0.20;;;18.80;62.30;;;;;;4842192;29;20080;-74
2022/05/22 10:16:49;;;;;;;1.45;0.28;;;19.10;61.10;;;;;;4842595;29;20049;-72
2022/05/22 10:19:19;;;;;;;2.33;0.60;;;19.40;60.40;;;;;;4836211;29;20064;-72
2022/05/22 10:22:13;;;;;;;1.05;0.30;;;19.70;60.20;;;;;;4842309;29;20057;-73
2022/05/22 10:24:45;;;;;;;1.05;0.40;;;19.80;58.10;;;;;;4842388;29;20420;-73
2022/05/22 10:27:18;;;;;;;1.83;0.90;;;19.90;58.70;;;;;;4842335;29;20045;-72
2022/05/22 10:29:53;;;;;;;2.35;0.57;;;19.90;58.40;;;;;;4842292;29;20054;-73
2022/05/22 10:32:29;;;;;;;0.68;0.30;;;20.00;59.00;;;;;;4842293;29;20598;-73
2022/05/22 10:35:18;;;;;;;1.48;0.50;;;20.10;58.70;;;;;;4841921;29;20069;-73
2022/05/22 10:37:57;;;;;;;1.02;0.30;;;20.10;58.10;;;;;;4841783;29;20054;-73
2022/05/22 10:40:25;;;;;;;1.67;0.38;;;20.10;56.80;;;;;;4826889;29;20050;-73
2022/05/22 10:42:58;;;;;;;0.32;0.25;;;19.90;57.70;;;;;;4832569;29;20054;-73
2022/05/22 10:45:36;;;;;;;0.90;0.40;;;19.60;59.00;;;;;;4898385;29;20522;-73
2022/05/22 10:48:19;;;;;;;1.00;0.30;;;19.50;59.30;;;;;;4900168;29;20499;-73
2022/05/22 10:51:12;;;;;;;2.58;0.60;;;19.40;60.00;;;;;;4898794;29;20049;-73
2022/05/22 10:53:46;;;;;;;1.88;0.38;;;19.40;59.70;;;;;;4898614;29;20059;-74
2022/05/22 10:56:13;;;;;;;1.15;0.40;;;19.40;59.20;;;;;;4883097;29;20049;-74
2022/05/22 10:59:17;;;;;;;1.67;0.80;;;19.50;58.50;;;;;;4898588;29;20048;-74
2022/05/22 11:01:58;;;;;;;0.43;0.30;;;19.40;58.50;;;;;;4898996;29;20052;-74
2022/05/22 11:04:39;;;;;;;0.95;0.43;;;19.60;59.00;;;;;;4897843;29;20419;-74
2022/05/22 11:07:08;;;;;;;1.05;0.50;;;19.70;58.90;;;;;;4900012;29;20055;-73
2022/05/22 11:09:46;;;;;;;0.73;0.50;;;19.60;59.40;;;;;;4898376;29;20059;-73
2022/05/22 11:12:20;;;;;;;4.00;1.08;;;19.60;59.80;;;;;;4899621;29;20048;-73
2022/05/22 11:14:48;;;;;;;2.47;1.00;;;19.80;59.80;;;;;;4898635;29;20048;-74
2022/05/22 11:17:21;;;;;;;0.88;0.70;;;19.80;59.00;;;;;;4899886;29;20048;-74
2022/05/22 11:19:52;;;;;;;;;;;19.50;59.70;;;;;;4899535;29;20056;-74
2022/05/22 11:22:34;;;;;;;0.75;0.57;;;19.30;60.40;;;;;;4883117;29;20282;-73
2022/05/22 11:25:33;;;;;;;1.60;0.70;;;19.40;60.60;;;;;;4899496;29;20501;-74
2022/05/22 11:28:37;;;;;;;1.48;0.90;;;19.60;60.60;;;;;;4899659;29;20049;-74
2022/05/22 11:31:41;;;;;;;1.80;1.00;;;20.00;59.80;;;;;;4899378;29;20056;-74
2022/05/22 11:34:35;;;;;;;1.27;0.98;;;20.30;58.80;;;;;;4899412;29;20073;-73
2022/05/22 11:37:12;;;;;;;2.35;1.30;;;20.80;57.60;;;;;;4883067;29;20058;-73
2022/05/22 11:40:07;;;;;;;1.95;1.17;;;21.10;57.10;;;;;;4898227;29;20048;-73
2022/05/22 11:42:38;;;;;;;2.35;1.17;;;21.50;56.00;;;;;;4898453;29;20053;-73
2022/05/22 11:45:36;;;;;;;2.55;1.20;;;21.60;54.60;;;;;;4899070;29;20063;-72
2022/05/22 11:48:25;;;;;;;2.75;1.10;;;21.50;54.60;;;;;;4897676;29;20059;-74
2022/05/22 11:51:04;;;;;;;5.43;1.60;;;21.30;54.90;;;;;;4882397;29;20056;-72
2022/05/22 11:54:01;;;;;;;3.30;1.52;;;21.20;55.60;;;;;;4898581;29;20063;-73
2022/05/22 11:56:45;;;;;;;2.47;1.50;;;20.90;56.00;;;;;;4885069;29;20051;-73
2022/05/22 11:59:37;;;;;;;2.20;1.45;;;20.90;56.30;;;;;;4898897;29;20060;-72
2022/05/22 12:02:26;;;;;;;3.55;1.33;;;21.20;56.90;;;;;;4898836;29;20067;-72
2022/05/22 12:05:41;;;;;;;2.83;1.50;;;21.50;56.40;;;;;;4882336;29;20071;-73
2022/05/22 12:08:28;;;;;;;1.92;1.38;;;21.80;54.70;;;;;;4858942;29;20583;-73
2022/05/22 12:11:48;;;;;;;1.77;1.50;;;21.80;53.80;;;;;;4858906;29;20567;-73
2022/05/22 12:14:36;;;;;;;1.77;1.48;;;21.50;53.50;;;;;;4828759;29;20060;-73
2022/05/22 12:17:23;;;;;;;2.50;1.60;;;21.50;55.10;;;;;;4858694;29;20064;-73
2022/05/22 12:20:20;;;;;;;2.65;1.83;;;21.80;54.30;;;;;;4858727;29;20057;-73
2022/05/22 12:23:12;;;;;;;3.53;2.03;;;21.80;54.30;;;;;;4858818;29;20072;-73
2022/05/22 12:25:50;;;;;;;2.60;2.22;;;21.80;54.40;;;;;;4858845;29;20060;-74
2022/05/22 12:28:35;;;;;;;2.70;1.60;;;21.90;53.50;;;;;;4858768;29;20053;-74
2022/05/22 12:31:13;;;;;;;5.50;1.80;;;22.10;53.20;;;;;;4858652;29;20049;-74
2022/05/22 12:33:41;;;;;;;2.60;1.70;;;22.50;52.50;;;;;;4858294;29;20459;-74
2022/05/22 12:36:11;;;;;;;2.63;1.83;;;22.70;52.70;;;;;;4843261;29;20492;-74
2022/05/22 12:38:45;;;;;;;2.58;1.73;;;22.80;51.70;;;;;;4872168;29;20063;-73
2022/05/22 12:41:36;;;;;;;2.08;1.45;;;22.50;52.30;;;;;;4881075;29;20056;-74
2022/05/22 12:44:05;;;;;;;3.67;1.80;;;22.30;53.40;;;;;;4881153;29;20056;-74
2022/05/22 12:46:34;;;;;;;1.83;1.33;;;22.40;54.00;;;;;;4897651;29;20055;-74
2022/05/22 12:49:27;;;;;;;4.90;1.48;;;22.60;52.70;;;;;;4897950;29;20048;-74
2022/05/22 12:52:15;;;;;;;1.52;1.40;;;22.50;51.30;;;;;;4897830;29;20055;-74
2022/05/22 12:54:43;;;;;;;4.07;1.80;;;22.30;51.30;;;;;;4881042;29;20067;-74
2022/05/22 12:57:11;;;;;;;2.20;1.63;;;22.20;51.80;;;;;;4898188;29;20052;-74
2022/05/22 12:59:53;;;;;;;2.58;1.50;;;22.10;52.10;;;;;;4895705;29;20061;-73
2022/05/22 13:02:47;;;;;;;2.38;1.70;;;21.90;52.90;;;;;;4880493;29;20136;-74
2022/05/22 13:05:28;;;;;;;2.78;1.30;;;21.80;53.20;;;;;;4880916;29;20483;-73
2022/05/22 13:07:57;;;;;;;2.25;1.55;;;21.60;53.70;;;;;;4880811;29;20509;-73
2022/05/22 13:10:42;;;;;;;2.47;1.23;;;21.30;53.90;;;;;;4866227;29;20052;-73
2022/05/22 13:13:13;;;;;;;3.95;1.50;;;21.10;54.40;;;;;;4879701;29;20049;-73
2022/05/22 13:16:05;;;;;;;3.05;1.30;;;20.80;55.60;;;;;;4894109;29;20051;-73
2022/05/22 13:18:49;;;;;;;2.38;1.10;;;20.30;57.00;;;;;;4896879;29;20059;-73
2022/05/22 13:21:29;;;;;;;;;;;20.00;58.20;;;;;;4887198;29;20495;-73
2022/05/22 13:24:06;;;;;;;2.10;1.00;;;19.80;59.40;;;;;;4895515;29;19924;-74
2022/05/22 13:26:34;;;;;;;3.97;1.00;;;19.50;61.00;;;;;;4896183;29;20063;-73
2022/05/22 13:29:20;;;;;;;2.13;1.15;;;19.20;61.70;;;;;;4896157;29;20160;-73
2022/05/22 13:31:54;;;;;;;2.50;0.73;;;19.10;62.70;;;;;;4894951;29;20427;-74
2022/05/22 13:34:31;;;;;;;1.67;0.90;;;19.00;63.30;;;;;;4895770;29;20056;-73
2022/05/22 13:37:09;;;;;;;2.72;0.90;;;19.20;63.40;;;;;;4896397;29;20059;-73
2022/05/22 13:39:37;;;;;;;1.90;0.80;;;19.30;63.20;;;;;;4879135;29;20059;-74
2022/05/22 13:42:26;;;;;;;3.47;1.08;;;19.80;62.80;;;;;;4880539;29;20495;-74
2022/05/22 13:45:03;;;;;;;1.70;1.08;;;20.80;59.20;;;;;;4896696;29;20415;-73
2022/05/22 13:47:59;;;;;;;1.60;0.85;;;21.40;56.40;;;;;;4880315;29;20134;-74
2022/05/22 13:53:55;;;;;;;5.57;1.13;;;22.70;53.60;;;;;;4896604;29;20064;-73
2022/05/22 13:56:42;;;;;;;1.42;1.20;;;23.10;51.90;;;;;;4878376;29;20080;-74
2022/05/22 13:59:31;;;;;;;2.25;1.63;;;23.40;50.80;;;;;;4876720;29;20057;-74
2022/05/22 14:02:13;;;;;;;3.58;1.20;;;23.30;50.40;;;;;;4894773;29;20063;-74
2022/05/22 14:04:44;;;;;;;1.77;1.52;;;22.90;51.30;;;;;;4899063;29;20055;-74
2022/05/22 14:07:35;;;;;;;1.20;1.10;;;22.40;52.30;;;;;;4899127;29;20079;-73
2022/05/22 14:10:05;;;;;;;1.70;1.10;;;22.00;53.90;;;;;;4915383;29;20047;-73